createdAt,value
2023-01-31T00:02:28.358Z,3.64
2023-01-31T00:05:30.430Z,3.64
2023-01-31T00:08:32.053Z,3.68
2023-01-31T00:11:34.905Z,3.68
2023-01-31T00:14:37.308Z,3.60
2023-01-31T00:17:40.492Z,3.63
2023-01-31T00:20:42.101Z,3.62
2023-01-31T00:23:44.828Z,3.59
2023-01-31T00:26:48.550Z,3.59
2023-01-31T00:29:50.339Z,3.57
2023-01-31T00:32:53.315Z,3.56
2023-01-31T00:35:54.988Z,3.50
2023-01-31T00:38:59.398Z,3.55
2023-01-31T00:42:01.106Z,3.57
2023-01-31T00:45:03.392Z,3.59
2023-01-31T00:48:06.448Z,3.60
2023-01-31T00:51:08.972Z,3.57
2023-01-31T00:54:11.045Z,3.62
2023-01-31T00:57:12.669Z,3.58
2023-01-31T01:00:15.807Z,3.63
2023-01-31T01:03:18.967Z,3.51
2023-01-31T01:06:21.054Z,3.51
2023-01-31T01:09:22.873Z,3.52
2023-01-31T01:12:24.639Z,3.55
2023-01-31T01:15:26.275Z,3.57
2023-01-31T01:18:29.687Z,3.57
2023-01-31T01:21:39.175Z,3.58
2023-01-31T01:24:42.752Z,3.55
2023-01-31T01:27:44.547Z,3.51
2023-01-31T01:30:46.383Z,3.38
2023-01-31T01:33:49.652Z,3.34
2023-01-31T01:36:51.332Z,3.25
2023-01-31T01:39:53.333Z,3.16
2023-01-31T01:42:55.037Z,3.12
2023-01-31T01:45:57.519Z,3.10
2023-01-31T01:49:05.867Z,3.10
2023-01-31T01:52:12.464Z,3.01
2023-01-31T01:55:22.611Z,2.92
2023-01-31T01:58:29.491Z,3.09
2023-01-31T02:01:35.149Z,3.12
2023-01-31T02:04:46.452Z,3.03
2023-01-31T02:07:48.139Z,3.06
2023-01-31T02:10:55.542Z,3.14
2023-01-31T02:14:01.783Z,3.09
2023-01-31T02:17:03.749Z,3.08
2023-01-31T02:20:29.047Z,3.14
2023-01-31T02:24:06.053Z,3.13
2023-01-31T02:27:29.014Z,3.11
2023-01-31T02:30:50.149Z,3.03
2023-01-31T02:34:02.346Z,3.17
2023-01-31T02:37:16.860Z,3.03
2023-01-31T02:40:26.457Z,3.02
2023-01-31T02:43:56.873Z,2.91
2023-01-31T02:47:02.025Z,2.87
2023-01-31T02:50:12.918Z,2.76
2023-01-31T02:53:22.567Z,2.72
2023-01-31T02:56:30.288Z,2.59
2023-01-31T02:59:32.964Z,2.47
2023-01-31T03:02:34.891Z,2.35
2023-01-31T03:05:38.785Z,2.15
2023-01-31T03:08:44.295Z,1.99
2023-01-31T03:11:53.349Z,1.98
2023-01-31T03:15:05.910Z,1.98
2023-01-31T03:18:13.690Z,1.88
2023-01-31T03:21:21.495Z,1.73
2023-01-31T03:24:26.211Z,1.67
2023-01-31T03:27:28.834Z,1.57
2023-01-31T03:30:37.380Z,1.46
2023-01-31T03:33:42.195Z,1.48
2023-01-31T03:36:54.033Z,1.60
2023-01-31T03:40:24.141Z,1.49
2023-01-31T03:43:31.882Z,1.35
2023-01-31T03:46:40.029Z,1.30
2023-01-31T03:49:44.880Z,1.37
2023-01-31T03:52:54.923Z,1.22
2023-01-31T03:56:01.800Z,1.14
2023-01-31T03:59:10.126Z,1.34
2023-01-31T04:02:16.923Z,1.32
2023-01-31T04:05:22.950Z,1.14
2023-01-31T04:08:31.264Z,1.33
2023-01-31T04:11:39.765Z,1.10
2023-01-31T04:14:41.879Z,1.01
2023-01-31T04:17:43.883Z,1.00
2023-01-31T04:20:45.648Z,1.00
2023-01-31T04:23:48.754Z,0.87
2023-01-31T04:26:50.746Z,0.93
2023-01-31T04:29:52.462Z,0.92
2023-01-31T04:32:54.256Z,1.06
2023-01-31T04:35:56.008Z,1.08
2023-01-31T04:39:00.826Z,0.97
2023-01-31T04:42:02.556Z,0.87
2023-01-31T04:45:05.211Z,0.94
2023-01-31T04:48:07.754Z,0.99
2023-01-31T04:51:09.776Z,0.81
2023-01-31T04:54:12.928Z,0.84
2023-01-31T04:57:14.696Z,0.74
2023-01-31T05:00:17.430Z,0.76
2023-01-31T05:03:19.070Z,0.79
2023-01-31T05:06:20.743Z,0.74
2023-01-31T05:09:24.900Z,0.62
2023-01-31T05:12:28.411Z,0.40
2023-01-31T05:15:30.282Z,0.44
2023-01-31T05:18:32.701Z,0.58
2023-01-31T05:21:54.402Z,0.48
2023-01-31T05:24:58.556Z,0.50
2023-01-31T05:28:00.347Z,0.41
2023-01-31T05:31:05.306Z,0.36
2023-01-31T05:34:07.318Z,0.42
2023-01-31T05:37:09.512Z,0.70
2023-01-31T05:40:14.841Z,0.73
2023-01-31T05:43:16.531Z,0.80
2023-01-31T05:46:18.267Z,0.72
2023-01-31T05:49:20.317Z,0.74
2023-01-31T05:52:22.095Z,0.86
2023-01-31T05:55:25.827Z,0.88
2023-01-31T05:58:27.624Z,0.68
2023-01-31T06:01:30.010Z,0.72
2023-01-31T06:04:32.153Z,0.83
2023-01-31T06:07:34.230Z,0.79
2023-01-31T06:10:37.261Z,0.92
2023-01-31T06:13:39.926Z,1.09
2023-01-31T06:16:41.769Z,1.26
2023-01-31T06:19:43.701Z,1.31
2023-01-31T06:22:45.601Z,1.39
2023-01-31T06:25:50.524Z,1.40
2023-01-31T06:28:52.303Z,1.44
2023-01-31T06:31:53.993Z,1.55
2023-01-31T06:34:56.187Z,1.56
2023-01-31T06:37:58.215Z,1.57
2023-01-31T06:41:01.262Z,1.62
2023-01-31T06:44:03.100Z,1.62
2023-01-31T06:47:05.034Z,1.65
2023-01-31T06:50:07.299Z,1.63
2023-01-31T06:53:08.991Z,1.68
2023-01-31T06:56:12.424Z,1.67
2023-01-31T06:59:14.341Z,1.68
2023-01-31T07:02:16.699Z,1.66
2023-01-31T07:05:18.720Z,1.69
2023-01-31T07:08:20.539Z,1.67
2023-01-31T07:11:23.658Z,1.64
2023-01-31T07:14:25.332Z,1.68
2023-01-31T07:17:27.158Z,1.72
2023-01-31T07:20:28.926Z,1.68
2023-01-31T07:23:31.130Z,1.69
2023-01-31T07:26:34.997Z,1.71
2023-01-31T07:29:38.347Z,1.68
2023-01-31T07:32:40.256Z,1.71
2023-01-31T07:35:42.173Z,1.74
2023-01-31T07:38:44.013Z,1.73
2023-01-31T07:41:47.094Z,1.74
2023-01-31T07:44:48.895Z,1.75
2023-01-31T07:47:50.561Z,1.75
2023-01-31T07:50:53.706Z,1.71
2023-01-31T07:53:56.609Z,1.75
2023-01-31T07:56:59.816Z,1.79
2023-01-31T08:00:01.771Z,1.85
2023-01-31T08:03:33.928Z,1.81
2023-01-31T08:06:36.523Z,1.81
2023-01-31T08:09:39.103Z,1.88
2023-01-31T08:12:42.405Z,1.93
2023-01-31T08:15:44.173Z,1.95
2023-01-31T08:18:46.405Z,1.92
2023-01-31T08:21:48.300Z,2.03
2023-01-31T08:24:49.985Z,1.98
2023-01-31T08:27:53.048Z,2.06
2023-01-31T08:31:07.785Z,2.15
2023-01-31T08:37:32.741Z,2.22
2023-01-31T08:40:34.476Z,2.25
2023-01-31T08:43:53.760Z,2.28
2023-01-31T08:47:00.741Z,2.34
2023-01-31T08:50:02.733Z,2.28
2023-01-31T08:53:04.835Z,2.30
2023-01-31T08:56:08.733Z,2.33
2023-01-31T08:59:12.259Z,2.49
2023-01-31T09:02:14.145Z,2.50
2023-01-31T09:05:16.464Z,2.46
2023-01-31T09:08:18.223Z,2.40
2023-01-31T09:11:20.637Z,2.35
2023-01-31T09:14:23.712Z,2.36
2023-01-31T09:22:36.390Z,2.54
2023-01-31T09:25:47.132Z,2.52
2023-01-31T09:28:50.953Z,2.52
2023-01-31T09:31:53.232Z,2.43
2023-01-31T09:34:55.254Z,2.60
2023-01-31T09:37:58.503Z,2.68
2023-01-31T09:41:03.901Z,2.67
2023-01-31T09:44:06.893Z,2.67
2023-01-31T09:47:14.088Z,2.69
2023-01-31T09:50:20.875Z,2.63
2023-01-31T09:53:29.243Z,2.75
2023-01-31T09:56:39.488Z,2.72
2023-01-31T09:59:48.983Z,2.79
2023-01-31T10:03:13.217Z,2.85
2023-01-31T10:06:21.043Z,2.98
2023-01-31T10:09:29.458Z,3.03
2023-01-31T10:12:39.517Z,3.13
2023-01-31T10:15:45.095Z,3.18
2023-01-31T10:18:51.569Z,3.15
2023-01-31T10:21:57.290Z,3.21
2023-01-31T10:25:08.475Z,3.20
2023-01-31T10:28:14.059Z,3.09
2023-01-31T10:31:28.118Z,3.13
2023-01-31T10:34:34.738Z,3.31
2023-01-31T10:37:42.700Z,3.47
2023-01-31T10:40:52.479Z,3.72
2023-01-31T10:44:00.437Z,3.91
2023-01-31T10:47:02.691Z,3.86
2023-01-31T10:50:14.788Z,3.84
2023-01-31T10:53:41.450Z,3.85
2023-01-31T10:56:47.211Z,3.83
2023-01-31T10:59:50.199Z,3.82
2023-01-31T11:02:52.186Z,3.81
2023-01-31T11:05:56.679Z,3.84
2023-01-31T11:09:01.127Z,3.85
2023-01-31T11:12:06.847Z,3.91
2023-01-31T11:15:16.798Z,4.00
2023-01-31T11:18:29.059Z,4.03
2023-01-31T11:21:33.463Z,4.01
2023-01-31T11:24:38.675Z,4.09
2023-01-31T11:27:42.676Z,4.10
2023-01-31T11:30:48.931Z,4.09
2023-01-31T11:33:57.409Z,4.12
2023-01-31T11:37:12.862Z,4.10
2023-01-31T11:40:22.489Z,4.17
2023-01-31T11:43:30.063Z,4.25
2023-01-31T11:46:44.378Z,4.18
2023-01-31T11:49:50.533Z,4.19
2023-01-31T11:52:57.940Z,4.21
2023-01-31T11:56:12.871Z,4.26
2023-01-31T11:59:21.231Z,4.29
2023-01-31T12:02:36.822Z,4.34
2023-01-31T12:05:42.304Z,4.32
2023-01-31T12:08:44.126Z,4.33
2023-01-31T12:11:51.140Z,4.34
2023-01-31T12:14:59.213Z,4.35
2023-01-31T12:18:01.789Z,4.34
2023-01-31T12:21:10.883Z,4.32
2023-01-31T12:24:24.987Z,4.35
2023-01-31T12:27:40.547Z,4.32
2023-01-31T12:31:10.641Z,4.29
2023-01-31T12:34:30.228Z,4.28
2023-01-31T12:37:42.392Z,4.30
2023-01-31T12:40:49.891Z,4.26
2023-01-31T12:44:05.420Z,4.23
2023-01-31T12:47:37.849Z,4.28
2023-01-31T12:50:48.684Z,4.34
2023-01-31T12:53:59.872Z,4.28
2023-01-31T12:57:10.102Z,4.23
2023-01-31T13:00:28.051Z,4.21
2023-01-31T13:03:44.286Z,4.17
2023-01-31T13:06:51.210Z,4.11
2023-01-31T13:09:54.619Z,4.10
2023-01-31T13:12:58.450Z,4.12
2023-01-31T13:16:05.634Z,4.11
2023-01-31T13:19:15.641Z,4.07
2023-01-31T13:22:21.179Z,4.04
2023-01-31T13:25:29.500Z,4.05
2023-01-31T13:28:36.684Z,4.05
2023-01-31T13:31:44.914Z,4.05
2023-01-31T13:34:52.647Z,4.02
2023-01-31T13:38:00.750Z,4.07
2023-01-31T13:41:04.715Z,4.06
2023-01-31T13:44:12.249Z,4.02
2023-01-31T13:47:18.441Z,4.00
2023-01-31T13:50:33.156Z,3.98
2023-01-31T13:53:42.347Z,3.98
2023-01-31T13:56:50.195Z,3.96
2023-01-31T13:59:55.171Z,3.98
2023-01-31T14:03:01.324Z,3.97
2023-01-31T14:06:04.697Z,3.96
2023-01-31T14:09:23.212Z,3.92
2023-01-31T14:12:36.294Z,3.88
2023-01-31T14:15:48.368Z,3.87
2023-01-31T14:18:50.135Z,3.85
2023-01-31T14:21:55.159Z,3.83
2023-01-31T14:25:02.271Z,3.83
2023-01-31T14:28:04.343Z,3.78
2023-01-31T14:31:13.329Z,3.77
2023-01-31T14:34:17.466Z,3.69
2023-01-31T14:37:34.989Z,3.71
2023-01-31T14:40:46.420Z,3.71
2023-01-31T14:44:01.593Z,3.67
2023-01-31T14:48:01.421Z,3.63
2023-01-31T14:51:14.490Z,3.53
2023-01-31T14:54:33.529Z,3.53
2023-01-31T14:57:41.317Z,3.45
2023-01-31T15:00:49.993Z,3.35
2023-01-31T15:03:58.856Z,3.25
2023-01-31T15:07:00.763Z,3.21
2023-01-31T15:10:04.839Z,3.14
2023-01-31T15:13:37.634Z,3.12
2023-01-31T15:16:39.327Z,3.10
2023-01-31T15:19:46.832Z,3.06
2023-01-31T15:22:50.200Z,3.07
2023-01-31T15:25:54.355Z,3.04
2023-01-31T15:28:58.063Z,3.08
2023-01-31T15:33:22.202Z,3.06
2023-01-31T15:36:30.532Z,3.06
2023-01-31T15:39:40.017Z,3.08
2023-01-31T15:42:42.128Z,3.08
2023-01-31T15:45:44.815Z,3.08
2023-01-31T15:48:48.304Z,3.09
2023-01-31T15:52:10.170Z,3.10
2023-01-31T15:55:14.303Z,3.11
2023-01-31T15:58:18.885Z,3.14
2023-01-31T16:01:20.748Z,3.11
2023-01-31T16:04:23.974Z,3.14
2023-01-31T16:07:31.650Z,3.11
2023-01-31T16:10:33.977Z,3.17
2023-01-31T16:13:38.132Z,3.17
2023-01-31T16:16:40.202Z,3.20
2023-01-31T16:19:48.739Z,3.20
2023-01-31T16:22:56.381Z,3.24
2023-01-31T16:26:03.883Z,3.27
2023-01-31T16:29:10.767Z,3.30
2023-01-31T16:32:19.684Z,3.33
2023-01-31T16:35:26.003Z,3.33
2023-01-31T16:38:27.779Z,3.36
2023-01-31T16:41:42.023Z,3.41
2023-01-31T16:44:46.213Z,3.49
2023-01-31T16:47:52.486Z,3.49
2023-01-31T16:50:57.012Z,3.53
2023-01-31T16:54:21.231Z,3.58
2023-01-31T16:57:41.603Z,3.62
2023-01-31T17:01:11.857Z,3.68
2023-01-31T17:04:32.499Z,3.71
2023-01-31T17:07:54.239Z,3.71
2023-01-31T17:11:34.116Z,3.74
2023-01-31T17:15:01.608Z,3.75
2023-01-31T17:18:23.581Z,3.81
2023-01-31T17:21:44.293Z,3.84
2023-01-31T17:25:14.789Z,3.88
2023-01-31T17:28:35.078Z,3.88
2023-01-31T17:31:55.525Z,3.91
2023-01-31T17:35:19.422Z,3.92
2023-01-31T17:38:41.384Z,3.96
2023-01-31T17:42:03.930Z,4.00
2023-01-31T17:45:25.401Z,4.00
2023-01-31T17:48:46.039Z,3.96
2023-01-31T17:52:06.238Z,3.92
2023-01-31T17:55:26.721Z,3.92
2023-01-31T17:58:49.534Z,3.89
2023-01-31T18:02:10.383Z,3.87
2023-01-31T18:05:39.137Z,3.88
2023-01-31T18:09:04.604Z,3.90
2023-01-31T18:12:25.158Z,3.88
2023-01-31T18:15:47.421Z,3.95
2023-01-31T18:19:08.025Z,3.92
2023-01-31T18:22:28.234Z,3.89
2023-01-31T18:25:48.569Z,3.93
2023-01-31T18:29:08.811Z,3.93
2023-01-31T18:32:30.509Z,3.95
2023-01-31T18:35:56.004Z,3.95
2023-01-31T18:39:16.491Z,3.91
2023-01-31T18:42:33.324Z,3.94
2023-01-31T18:45:37.217Z,3.95
2023-01-31T18:48:41.865Z,3.97
2023-01-31T18:51:43.658Z,3.98
2023-01-31T18:54:48.918Z,3.96
2023-01-31T18:57:50.426Z,3.95
2023-01-31T19:00:52.046Z,3.93
2023-01-31T19:03:58.240Z,3.95
2023-01-31T19:07:00.040Z,3.97
2023-01-31T19:40:08.728Z,4.32
2023-01-31T19:43:10.510Z,4.47
2023-01-31T19:46:12.709Z,4.58
2023-01-31T19:49:14.518Z,4.72
2023-01-31T19:52:16.179Z,4.74
2023-01-31T19:55:19.580Z,4.77
2023-01-31T19:58:21.862Z,4.65
2023-01-31T20:01:23.920Z,4.83
2023-01-31T20:04:25.697Z,4.93
2023-01-31T20:07:27.362Z,5.01
2023-01-31T20:10:31.246Z,4.94
2023-01-31T20:13:33.309Z,5.00
2023-01-31T20:16:35.389Z,4.97
2023-01-31T20:19:37.175Z,4.98
2023-01-31T20:22:39.085Z,4.93
2023-01-31T20:25:42.138Z,4.87
2023-01-31T20:28:44.499Z,4.84
2023-01-31T20:31:46.462Z,4.87
2023-01-31T20:34:48.295Z,4.88
2023-01-31T20:37:49.994Z,4.89
2023-01-31T20:40:54.951Z,5.00
2023-01-31T20:43:57.821Z,5.02
2023-01-31T20:46:59.510Z,4.93
2023-01-31T20:50:01.490Z,4.91
2023-01-31T20:53:03.411Z,4.80
2023-01-31T20:56:09.489Z,4.85
2023-01-31T20:59:11.290Z,4.92
2023-01-31T21:02:13.518Z,5.00
2023-01-31T21:05:15.943Z,5.11
2023-01-31T21:08:18.429Z,5.00
2023-01-31T21:11:21.469Z,5.04
2023-01-31T21:14:23.427Z,5.04
2023-01-31T21:17:39.283Z,5.07
2023-01-31T21:20:41.815Z,5.09
2023-01-31T21:23:43.513Z,5.07
2023-01-31T21:26:46.656Z,5.07
2023-01-31T21:29:48.317Z,5.03
2023-01-31T21:32:50.046Z,5.00
2023-01-31T21:35:51.783Z,4.94
2023-01-31T21:42:36.106Z,4.95
2023-01-31T21:45:41.007Z,4.86
2023-01-31T21:48:44.704Z,4.84
2023-01-31T21:51:46.742Z,4.76
2023-01-31T21:54:48.416Z,4.71
2023-01-31T21:57:51.406Z,4.67
2023-01-31T22:00:53.115Z,4.70
2023-01-31T22:03:55.733Z,4.62
2023-01-31T22:06:57.626Z,4.60
2023-01-31T22:09:59.757Z,4.59
2023-01-31T22:13:02.845Z,4.59
2023-01-31T22:16:07.310Z,4.62
2023-01-31T22:19:10.357Z,4.66
2023-01-31T22:22:12.192Z,4.67
2023-01-31T22:25:13.950Z,4.71
2023-01-31T22:28:17.181Z,4.70
2023-01-31T22:31:19.430Z,4.68
2023-01-31T22:34:21.170Z,4.67
2023-01-31T22:37:22.861Z,4.67
2023-01-31T22:40:24.693Z,4.65
2023-01-31T22:43:28.799Z,4.60
2023-01-31T22:46:30.701Z,4.60
2023-01-31T22:49:32.599Z,4.59
2023-01-31T22:52:34.441Z,4.63
2023-01-31T22:55:39.457Z,4.63
2023-01-31T22:58:42.672Z,4.62
2023-01-31T23:01:44.355Z,4.61
2023-01-31T23:04:46.020Z,4.60
2023-01-31T23:07:47.682Z,4.60
2023-01-31T23:10:49.471Z,4.63
2023-01-31T23:13:52.770Z,4.64
2023-01-31T23:17:13.040Z,4.63
2023-01-31T23:20:16.936Z,4.66
2023-01-31T23:23:18.695Z,4.66
2023-01-31T23:26:20.459Z,4.66
2023-01-31T23:29:23.534Z,4.64
2023-01-31T23:32:25.709Z,4.63
2023-01-31T23:35:27.517Z,4.61
2023-01-31T23:38:29.302Z,4.60
2023-01-31T23:41:31.097Z,4.60
2023-01-31T23:44:34.167Z,4.59
2023-01-31T23:47:35.924Z,4.60
2023-01-31T23:50:37.779Z,4.54
2023-01-31T23:53:39.469Z,4.57
2023-01-31T23:56:41.183Z,4.53
2023-01-31T23:59:45.402Z,4.56
